sensor_id;sensor_type;location;lat;lon;timestamp;temperature;humidity
2260;DHT22;333;48.800;9.530;2024-02-14T00:00:19;1.20;99.60
2260;DHT22;333;48.800;9.530;2024-02-14T00:02:47;1.30;99.60
2260;DHT22;333;48.800;9.530;2024-02-14T00:05:17;1.40;99.60
2260;DHT22;333;48.800;9.530;2024-02-14T00:07:44;1.30;99.60
2260;DHT22;333;48.800;9.530;2024-02-14T00:10:11;1.30;99.60
2260;DHT22;333;48.800;9.530;2024-02-14T00:12:38;1.60;99.60
2260;DHT22;333;48.800;9.530;2024-02-14T00:15:06;1.50;99.60
2260;DHT22;333;48.800;9.530;2024-02-14T00:17:33;1.30;99.60
2260;DHT22;333;48.800;9.530;2024-02-14T00:20:01;1.20;99.60
2260;DHT22;333;48.800;9.530;2024-02-14T00:22:30;1.20;99.60
2260;DHT22;333;48.800;9.530;2024-02-14T00:24:57;1.20;99.60
2260;DHT22;333;48.800;9.530;2024-02-14T00:27:24;1.20;99.60
2260;DHT22;333;48.800;9.530;2024-02-14T00:29:52;1.30;99.60
2260;DHT22;333;48.800;9.530;2024-02-14T00:32:19;1.40;99.60
2260;DHT22;333;48.800;9.530;2024-02-14T00:34:46;1.50;99.60
2260;DHT22;333;48.800;9.530;2024-02-14T00:37:15;1.50;99.60
2260;DHT22;333;48.800;9.530;2024-02-14T00:39:44;1.80;99.60
2260;DHT22;333;48.800;9.530;2024-02-14T00:42:11;1.80;99.60
2260;DHT22;333;48.800;9.530;2024-02-14T00:44:38;1.80;99.60
2260;DHT22;333;48.800;9.530;2024-02-14T00:47:05;1.80;99.60
2260;DHT22;333;48.800;9.530;2024-02-14T00:49:34;1.80;99.60
2260;DHT22;333;48.800;9.530;2024-02-14T00:52:01;1.70;99.60
2260;DHT22;333;48.800;9.530;2024-02-14T00:54:28;1.70;99.60
2260;DHT22;333;48.800;9.530;2024-02-14T00:56:57;1.70;99.60
2260;DHT22;333;48.800;9.530;2024-02-14T00:59:24;1.60;99.60
2260;DHT22;333;48.800;9.530;2024-02-14T01:01:51;1.80;99.60
2260;DHT22;333;48.800;9.530;2024-02-14T01:04:18;1.70;99.60
2260;DHT22;333;48.800;9.530;2024-02-14T01:06:45;1.70;99.60
2260;DHT22;333;48.800;9.530;2024-02-14T01:09:13;1.80;99.60
2260;DHT22;333;48.800;9.530;2024-02-14T01:11:40;1.80;99.60
2260;DHT22;333;48.800;9.530;2024-02-14T01:14:09;1.90;99.60
2260;DHT22;333;48.800;9.530;2024-02-14T01:16:42;2.00;99.60
2260;DHT22;333;48.800;9.530;2024-02-14T01:19:09;2.00;99.60
2260;DHT22;333;48.800;9.530;2024-02-14T01:21:36;2.00;99.60
2260;DHT22;333;48.800;9.530;2024-02-14T01:24:04;2.10;99.60
2260;DHT22;333;48.800;9.530;2024-02-14T01:26:33;2.00;99.60
2260;DHT22;333;48.800;9.530;2024-02-14T01:29:00;1.90;99.60
2260;DHT22;333;48.800;9.530;2024-02-14T01:31:29;1.90;99.60
2260;DHT22;333;48.800;9.530;2024-02-14T01:33:57;1.90;99.60
2260;DHT22;333;48.800;9.530;2024-02-14T01:36:24;2.00;99.60
2260;DHT22;333;48.800;9.530;2024-02-14T01:38:51;2.00;99.60
2260;DHT22;333;48.800;9.530;2024-02-14T01:41:18;2.10;99.60
2260;DHT22;333;48.800;9.530;2024-02-14T01:43:47;2.20;99.60
2260;DHT22;333;48.800;9.530;2024-02-14T01:46:14;2.10;99.60
2260;DHT22;333;48.800;9.530;2024-02-14T01:48:42;2.10;99.60
2260;DHT22;333;48.800;9.530;2024-02-14T01:51:11;2.20;99.60
2260;DHT22;333;48.800;9.530;2024-02-14T01:53:39;2.30;99.60
2260;DHT22;333;48.800;9.530;2024-02-14T01:56:08;2.40;99.60
2260;DHT22;333;48.800;9.530;2024-02-14T01:58:35;2.30;99.60
2260;DHT22;333;48.800;9.530;2024-02-14T02:01:03;2.30;99.60
2260;DHT22;333;48.800;9.530;2024-02-14T02:03:30;2.20;99.60
2260;DHT22;333;48.800;9.530;2024-02-14T02:06:03;2.20;99.60
2260;DHT22;333;48.800;9.530;2024-02-14T02:08:30;2.20;99.60
2260;DHT22;333;48.800;9.530;2024-02-14T02:10:58;2.40;99.60
2260;DHT22;333;48.800;9.530;2024-02-14T02:13:25;2.40;99.60
2260;DHT22;333;48.800;9.530;2024-02-14T02:15:52;2.30;99.60
2260;DHT22;333;48.800;9.530;2024-02-14T02:18:20;2.50;99.60
2260;DHT22;333;48.800;9.530;2024-02-14T02:20:47;2.50;99.60
2260;DHT22;333;48.800;9.530;2024-02-14T02:23:15;2.60;99.60
2260;DHT22;333;48.800;9.530;2024-02-14T02:25:43;2.50;99.60
2260;DHT22;333;48.800;9.530;2024-02-14T02:28:10;2.60;99.60
2260;DHT22;333;48.800;9.530;2024-02-14T02:30:37;2.60;99.60
2260;DHT22;333;48.800;9.530;2024-02-14T02:33:04;2.70;99.60
2260;DHT22;333;48.800;9.530;2024-02-14T02:35:33;2.70;99.60
2260;DHT22;333;48.800;9.530;2024-02-14T02:38:00;2.60;99.60
2260;DHT22;333;48.800;9.530;2024-02-14T02:40:29;2.60;99.60
2260;DHT22;333;48.800;9.530;2024-02-14T02:42:56;2.50;99.60
2260;DHT22;333;48.800;9.530;2024-02-14T02:45:24;2.60;99.60
2260;DHT22;333;48.800;9.530;2024-02-14T02:47:51;2.60;99.60
2260;DHT22;333;48.800;9.530;2024-02-14T02:50:18;2.60;99.60
2260;DHT22;333;48.800;9.530;2024-02-14T02:52:47;2.60;99.60
2260;DHT22;333;48.800;9.530;2024-02-14T02:55:14;2.70;99.60
2260;DHT22;333;48.800;9.530;2024-02-14T02:57:45;2.60;99.60
2260;DHT22;333;48.800;9.530;2024-02-14T03:00:12;2.70;99.60
2260;DHT22;333;48.800;9.530;2024-02-14T03:02:41;2.60;99.60
2260;DHT22;333;48.800;9.530;2024-02-14T03:05:10;2.60;99.60
2260;DHT22;333;48.800;9.530;2024-02-14T03:07:43;2.60;99.60
2260;DHT22;333;48.800;9.530;2024-02-14T03:10:12;2.70;99.60
2260;DHT22;333;48.800;9.530;2024-02-14T03:12:40;2.70;99.60
2260;DHT22;333;48.800;9.530;2024-02-14T03:15:10;2.70;99.60
2260;DHT22;333;48.800;9.530;2024-02-14T03:17:39;2.80;99.60
2260;DHT22;333;48.800;9.530;2024-02-14T03:20:07;2.80;99.60
2260;DHT22;333;48.800;9.530;2024-02-14T03:22:38;2.80;99.60
2260;DHT22;333;48.800;9.530;2024-02-14T03:25:09;2.90;99.60
2260;DHT22;333;48.800;9.530;2024-02-14T03:27:36;2.90;99.60
2260;DHT22;333;48.800;9.530;2024-02-14T03:30:04;2.90;99.60
2260;DHT22;333;48.800;9.530;2024-02-14T03:32:33;3.00;99.60
2260;DHT22;333;48.800;9.530;2024-02-14T03:35:00;3.00;99.60
2260;DHT22;333;48.800;9.530;2024-02-14T03:37:27;2.90;99.60
2260;DHT22;333;48.800;9.530;2024-02-14T03:39:54;3.00;99.60
2260;DHT22;333;48.800;9.530;2024-02-14T03:42:21;3.00;99.60
2260;DHT22;333;48.800;9.530;2024-02-14T03:44:48;3.10;99.60
2260;DHT22;333;48.800;9.530;2024-02-14T03:47:15;3.10;99.60
2260;DHT22;333;48.800;9.530;2024-02-14T03:49:43;3.10;99.60
2260;DHT22;333;48.800;9.530;2024-02-14T03:52:10;3.00;99.60
2260;DHT22;333;48.800;9.530;2024-02-14T03:54:37;2.80;99.60
2260;DHT22;333;48.800;9.530;2024-02-14T03:57:05;2.80;99.60
2260;DHT22;333;48.800;9.530;2024-02-14T03:59:36;2.80;99.60
2260;DHT22;333;48.800;9.530;2024-02-14T04:02:04;2.80;99.60
2260;DHT22;333;48.800;9.530;2024-02-14T04:04:32;2.90;99.60
2260;DHT22;333;48.800;9.530;2024-02-14T04:07:03;2.90;99.60
2260;DHT22;333;48.800;9.530;2024-02-14T04:09:32;2.90;99.60
2260;DHT22;333;48.800;9.530;2024-02-14T04:11:59;3.00;99.60
2260;DHT22;333;48.800;9.530;2024-02-14T04:14:26;3.10;99.60
2260;DHT22;333;48.800;9.530;2024-02-14T04:16:53;2.90;99.60
2260;DHT22;333;48.800;9.530;2024-02-14T04:19:20;2.90;99.60
2260;DHT22;333;48.800;9.530;2024-02-14T04:21:47;3.00;99.60
2260;DHT22;333;48.800;9.530;2024-02-14T04:24:15;3.10;99.60
2260;DHT22;333;48.800;9.530;2024-02-14T04:26:42;3.20;99.60
2260;DHT22;333;48.800;9.530;2024-02-14T04:29:09;3.50;99.60
2260;DHT22;333;48.800;9.530;2024-02-14T04:31:36;3.60;99.60
2260;DHT22;333;48.800;9.530;2024-02-14T04:34:03;3.50;99.60
2260;DHT22;333;48.800;9.530;2024-02-14T04:36:34;3.40;99.60
2260;DHT22;333;48.800;9.530;2024-02-14T04:39:02;3.30;99.60
2260;DHT22;333;48.800;9.530;2024-02-14T04:41:30;3.20;99.60
2260;DHT22;333;48.800;9.530;2024-02-14T04:43:57;3.30;99.60
2260;DHT22;333;48.800;9.530;2024-02-14T04:46:24;3.30;99.60
2260;DHT22;333;48.800;9.530;2024-02-14T04:48:51;3.20;99.60
2260;DHT22;333;48.800;9.530;2024-02-14T04:51:19;3.30;99.60
2260;DHT22;333;48.800;9.530;2024-02-14T04:53:46;3.50;99.60
2260;DHT22;333;48.800;9.530;2024-02-14T04:56:13;3.40;99.60
2260;DHT22;333;48.800;9.530;2024-02-14T04:58:41;3.30;99.60
2260;DHT22;333;48.800;9.530;2024-02-14T05:01:08;3.30;99.60
2260;DHT22;333;48.800;9.530;2024-02-14T05:03:35;3.20;99.60
2260;DHT22;333;48.800;9.530;2024-02-14T05:06:03;3.20;99.60
2260;DHT22;333;48.800;9.530;2024-02-14T05:08:31;3.20;99.60
2260;DHT22;333;48.800;9.530;2024-02-14T05:10:59;3.20;99.60
2260;DHT22;333;48.800;9.530;2024-02-14T05:13:26;3.20;99.60
2260;DHT22;333;48.800;9.530;2024-02-14T05:15:54;3.40;99.60
2260;DHT22;333;48.800;9.530;2024-02-14T05:18:22;3.50;99.60
2260;DHT22;333;48.800;9.530;2024-02-14T05:20:49;3.50;99.60
2260;DHT22;333;48.800;9.530;2024-02-14T05:23:16;3.60;99.60
2260;DHT22;333;48.800;9.530;2024-02-14T05:25:44;3.60;99.60
2260;DHT22;333;48.800;9.530;2024-02-14T05:28:11;3.60;99.60
2260;DHT22;333;48.800;9.530;2024-02-14T05:30:40;3.50;99.60
2260;DHT22;333;48.800;9.530;2024-02-14T05:33:08;3.60;99.60
2260;DHT22;333;48.800;9.530;2024-02-14T05:35:36;3.60;99.60
2260;DHT22;333;48.800;9.530;2024-02-14T05:38:03;3.70;99.60
2260;DHT22;333;48.800;9.530;2024-02-14T05:40:33;3.60;99.60
2260;DHT22;333;48.800;9.530;2024-02-14T05:43:03;3.70;99.60
2260;DHT22;333;48.800;9.530;2024-02-14T05:45:32;3.90;99.60
2260;DHT22;333;48.800;9.530;2024-02-14T05:48:00;3.80;99.60
2260;DHT22;333;48.800;9.530;2024-02-14T05:50:28;3.70;99.60
2260;DHT22;333;48.800;9.530;2024-02-14T05:52:55;3.70;99.60
2260;DHT22;333;48.800;9.530;2024-02-14T05:55:23;3.70;99.60
2260;DHT22;333;48.800;9.530;2024-02-14T05:57:50;3.60;99.60
2260;DHT22;333;48.800;9.530;2024-02-14T06:00:18;3.60;99.60
2260;DHT22;333;48.800;9.530;2024-02-14T06:02:46;3.60;99.60
2260;DHT22;333;48.800;9.530;2024-02-14T06:05:14;3.70;99.60
2260;DHT22;333;48.800;9.530;2024-02-14T06:07:42;3.70;99.60
2260;DHT22;333;48.800;9.530;2024-02-14T06:10:10;3.70;99.60
2260;DHT22;333;48.800;9.530;2024-02-14T06:12:37;3.70;99.60
2260;DHT22;333;48.800;9.530;2024-02-14T06:15:07;3.80;99.60
2260;DHT22;333;48.800;9.530;2024-02-14T06:17:34;3.90;99.60
2260;DHT22;333;48.800;9.530;2024-02-14T06:20:01;3.90;99.60
2260;DHT22;333;48.800;9.530;2024-02-14T06:22:31;3.90;99.60
2260;DHT22;333;48.800;9.530;2024-02-14T06:25:00;3.90;99.60
2260;DHT22;333;48.800;9.530;2024-02-14T06:27:30;3.90;99.60
2260;DHT22;333;48.800;9.530;2024-02-14T06:29:58;4.20;99.60
2260;DHT22;333;48.800;9.530;2024-02-14T06:32:25;4.30;99.60
2260;DHT22;333;48.800;9.530;2024-02-14T06:34:52;4.40;99.60
2260;DHT22;333;48.800;9.530;2024-02-14T06:37:19;4.40;99.60
2260;DHT22;333;48.800;9.530;2024-02-14T06:39:46;4.40;99.60
2260;DHT22;333;48.800;9.530;2024-02-14T06:42:16;4.50;99.60
2260;DHT22;333;48.800;9.530;2024-02-14T06:44:42;4.50;99.60
2260;DHT22;333;48.800;9.530;2024-02-14T06:47:10;4.50;99.60
2260;DHT22;333;48.800;9.530;2024-02-14T06:49:37;4.70;99.60
2260;DHT22;333;48.800;9.530;2024-02-14T06:52:04;4.70;99.60
2260;DHT22;333;48.800;9.530;2024-02-14T06:54:31;4.60;99.60
2260;DHT22;333;48.800;9.530;2024-02-14T06:56:59;4.60;99.60
2260;DHT22;333;48.800;9.530;2024-02-14T06:59:27;4.70;99.60
2260;DHT22;333;48.800;9.530;2024-02-14T07:01:54;4.70;99.60
2260;DHT22;333;48.800;9.530;2024-02-14T07:04:22;4.70;99.60
2260;DHT22;333;48.800;9.530;2024-02-14T07:06:52;4.80;99.60
2260;DHT22;333;48.800;9.530;2024-02-14T07:09:19;4.60;99.60
2260;DHT22;333;48.800;9.530;2024-02-14T07:11:46;4.60;99.60
2260;DHT22;333;48.800;9.530;2024-02-14T07:14:13;4.60;99.60
2260;DHT22;333;48.800;9.530;2024-02-14T07:16:42;4.70;99.60
2260;DHT22;333;48.800;9.530;2024-02-14T07:19:09;4.80;99.60
2260;DHT22;333;48.800;9.530;2024-02-14T07:21:36;4.70;99.60
2260;DHT22;333;48.800;9.530;2024-02-14T07:24:04;4.70;99.60
2260;DHT22;333;48.800;9.530;2024-02-14T07:26:31;4.60;99.60
2260;DHT22;333;48.800;9.530;2024-02-14T07:28:58;4.80;99.60
2260;DHT22;333;48.800;9.530;2024-02-14T07:31:28;4.80;99.60
2260;DHT22;333;48.800;9.530;2024-02-14T07:34:00;4.80;99.60
2260;DHT22;333;48.800;9.530;2024-02-14T07:36:28;4.80;99.60
2260;DHT22;333;48.800;9.530;2024-02-14T07:38:56;4.70;99.60
2260;DHT22;333;48.800;9.530;2024-02-14T07:41:23;4.90;99.60
2260;DHT22;333;48.800;9.530;2024-02-14T07:43:50;4.90;99.60
2260;DHT22;333;48.800;9.530;2024-02-14T07:46:18;5.00;99.60
2260;DHT22;333;48.800;9.530;2024-02-14T07:48:46;5.00;99.60
2260;DHT22;333;48.800;9.530;2024-02-14T07:51:15;5.00;99.60
2260;DHT22;333;48.800;9.530;2024-02-14T07:53:42;5.30;99.60
2260;DHT22;333;48.800;9.530;2024-02-14T07:56:09;5.30;99.60
2260;DHT22;333;48.800;9.530;2024-02-14T07:58:36;5.30;99.60
2260;DHT22;333;48.800;9.530;2024-02-14T08:01:04;5.30;99.60
2260;DHT22;333;48.800;9.530;2024-02-14T08:03:31;5.60;99.60
2260;DHT22;333;48.800;9.530;2024-02-14T08:05:58;5.70;99.60
2260;DHT22;333;48.800;9.530;2024-02-14T08:08:27;6.00;99.60
2260;DHT22;333;48.800;9.530;2024-02-14T08:10:54;5.80;99.60
2260;DHT22;333;48.800;9.530;2024-02-14T08:13:21;5.70;99.60
2260;DHT22;333;48.800;9.530;2024-02-14T08:15:48;5.80;99.60
2260;DHT22;333;48.800;9.530;2024-02-14T08:18:15;6.00;99.60
2260;DHT22;333;48.800;9.530;2024-02-14T08:20:42;6.20;99.60
2260;DHT22;333;48.800;9.530;2024-02-14T08:23:09;6.30;99.60
2260;DHT22;333;48.800;9.530;2024-02-14T08:25:38;6.20;99.60
2260;DHT22;333;48.800;9.530;2024-02-14T08:28:06;6.10;99.60
2260;DHT22;333;48.800;9.530;2024-02-14T08:30:34;6.00;99.60
2260;DHT22;333;48.800;9.530;2024-02-14T08:33:01;6.20;99.60
2260;DHT22;333;48.800;9.530;2024-02-14T08:35:28;6.30;99.60
2260;DHT22;333;48.800;9.530;2024-02-14T08:37:55;6.30;99.60
2260;DHT22;333;48.800;9.530;2024-02-14T08:40:22;6.30;99.60
2260;DHT22;333;48.800;9.530;2024-02-14T08:42:50;6.40;99.60
2260;DHT22;333;48.800;9.530;2024-02-14T08:45:17;6.40;99.60
2260;DHT22;333;48.800;9.530;2024-02-14T08:47:45;6.30;99.60
2260;DHT22;333;48.800;9.530;2024-02-14T08:50:12;6.30;99.60
2260;DHT22;333;48.800;9.530;2024-02-14T08:52:39;6.20;99.60
2260;DHT22;333;48.800;9.530;2024-02-14T08:55:06;6.30;99.60
2260;DHT22;333;48.800;9.530;2024-02-14T08:57:40;6.30;99.60
2260;DHT22;333;48.800;9.530;2024-02-14T09:00:09;6.40;99.60
2260;DHT22;333;48.800;9.530;2024-02-14T09:02:40;6.60;99.60
2260;DHT22;333;48.800;9.530;2024-02-14T09:05:08;6.80;99.60
2260;DHT22;333;48.800;9.530;2024-02-14T09:07:35;7.00;99.60
2260;DHT22;333;48.800;9.530;2024-02-14T09:10:02;7.20;99.60
2260;DHT22;333;48.800;9.530;2024-02-14T09:12:31;7.30;99.60
2260;DHT22;333;48.800;9.530;2024-02-14T09:14:59;7.40;99.60
2260;DHT22;333;48.800;9.530;2024-02-14T09:17:27;7.60;99.60
2260;DHT22;333;48.800;9.530;2024-02-14T09:19:54;7.90;99.60
2260;DHT22;333;48.800;9.530;2024-02-14T09:22:21;7.80;99.60
2260;DHT22;333;48.800;9.530;2024-02-14T09:24:49;7.90;99.60
2260;DHT22;333;48.800;9.530;2024-02-14T09:27:18;8.00;99.60
2260;DHT22;333;48.800;9.530;2024-02-14T09:29:45;8.20;99.60
2260;DHT22;333;48.800;9.530;2024-02-14T09:32:12;8.50;99.60
2260;DHT22;333;48.800;9.530;2024-02-14T09:34:40;8.70;99.60
2260;DHT22;333;48.800;9.530;2024-02-14T09:37:07;8.90;99.60
2260;DHT22;333;48.800;9.530;2024-02-14T09:39:35;9.00;99.60
2260;DHT22;333;48.800;9.530;2024-02-14T09:42:08;9.10;99.60
2260;DHT22;333;48.800;9.530;2024-02-14T09:44:36;9.20;99.60
2260;DHT22;333;48.800;9.530;2024-02-14T09:47:05;9.50;99.60
2260;DHT22;333;48.800;9.530;2024-02-14T09:49:32;9.60;99.60
2260;DHT22;333;48.800;9.530;2024-02-14T09:52:03;9.60;99.60
2260;DHT22;333;48.800;9.530;2024-02-14T09:54:31;9.70;99.60
2260;DHT22;333;48.800;9.530;2024-02-14T09:57:00;9.70;99.60
2260;DHT22;333;48.800;9.530;2024-02-14T09:59:29;9.80;99.60
2260;DHT22;333;48.800;9.530;2024-02-14T10:01:56;9.90;99.60
2260;DHT22;333;48.800;9.530;2024-02-14T10:04:23;10.20;99.60
2260;DHT22;333;48.800;9.530;2024-02-14T10:06:51;10.20;99.60
2260;DHT22;333;48.800;9.530;2024-02-14T10:09:23;10.40;99.60
2260;DHT22;333;48.800;9.530;2024-02-14T10:11:51;10.50;99.60
2260;DHT22;333;48.800;9.530;2024-02-14T10:14:18;10.40;99.60
2260;DHT22;333;48.800;9.530;2024-02-14T10:16:45;10.40;99.60
2260;DHT22;333;48.800;9.530;2024-02-14T10:19:15;10.50;99.60
2260;DHT22;333;48.800;9.530;2024-02-14T10:21:43;10.60;99.60
2260;DHT22;333;48.800;9.530;2024-02-14T10:24:10;10.80;99.60
2260;DHT22;333;48.800;9.530;2024-02-14T10:26:38;10.80;99.60
2260;DHT22;333;48.800;9.530;2024-02-14T10:29:06;11.00;99.60
2260;DHT22;333;48.800;9.530;2024-02-14T10:31:36;11.30;99.60
2260;DHT22;333;48.800;9.530;2024-02-14T10:34:04;11.90;99.60
2260;DHT22;333;48.800;9.530;2024-02-14T10:36:33;12.20;99.60
2260;DHT22;333;48.800;9.530;2024-02-14T10:39:01;12.40;99.60
2260;DHT22;333;48.800;9.530;2024-02-14T10:41:30;12.80;99.60
2260;DHT22;333;48.800;9.530;2024-02-14T10:44:02;12.90;99.60
2260;DHT22;333;48.800;9.530;2024-02-14T10:46:32;13.30;99.60
2260;DHT22;333;48.800;9.530;2024-02-14T10:49:02;13.50;99.60
2260;DHT22;333;48.800;9.530;2024-02-14T10:51:31;13.50;99.60
2260;DHT22;333;48.800;9.530;2024-02-14T10:53:59;13.10;99.60
2260;DHT22;333;48.800;9.530;2024-02-14T10:56:28;13.00;99.60
2260;DHT22;333;48.800;9.530;2024-02-14T10:58:57;12.80;99.60
2260;DHT22;333;48.800;9.530;2024-02-14T11:01:26;12.70;99.60
2260;DHT22;333;48.800;9.530;2024-02-14T11:03:57;12.70;99.60
2260;DHT22;333;48.800;9.530;2024-02-14T11:06:25;12.60;99.60
2260;DHT22;333;48.800;9.530;2024-02-14T11:09:00;12.70;99.60
2260;DHT22;333;48.800;9.530;2024-02-14T11:11:32;12.90;99.60
2260;DHT22;333;48.800;9.530;2024-02-14T11:13:59;13.20;99.60
2260;DHT22;333;48.800;9.530;2024-02-14T11:16:30;13.50;99.60
2260;DHT22;333;48.800;9.530;2024-02-14T11:19:08;13.80;99.60
2260;DHT22;333;48.800;9.530;2024-02-14T11:21:36;14.20;99.60
2260;DHT22;333;48.800;9.530;2024-02-14T11:24:05;14.30;99.60
2260;DHT22;333;48.800;9.530;2024-02-14T11:26:39;14.30;99.60
2260;DHT22;333;48.800;9.530;2024-02-14T11:29:06;14.20;99.60
2260;DHT22;333;48.800;9.530;2024-02-14T11:31:36;14.20;99.60
2260;DHT22;333;48.800;9.530;2024-02-14T11:34:04;14.10;99.60
2260;DHT22;333;48.800;9.530;2024-02-14T11:36:32;14.10;99.60
2260;DHT22;333;48.800;9.530;2024-02-14T11:39:03;13.90;99.60
2260;DHT22;333;48.800;9.530;2024-02-14T11:41:32;13.80;99.60
2260;DHT22;333;48.800;9.530;2024-02-14T11:44:01;13.60;99.60
2260;DHT22;333;48.800;9.530;2024-02-14T11:46:30;13.40;99.60
2260;DHT22;333;48.800;9.530;2024-02-14T11:49:00;13.40;99.60
2260;DHT22;333;48.800;9.530;2024-02-14T11:51:28;13.40;99.60
2260;DHT22;333;48.800;9.530;2024-02-14T11:53:56;13.30;99.60
2260;DHT22;333;48.800;9.530;2024-02-14T11:56:30;13.30;99.60
2260;DHT22;333;48.800;9.530;2024-02-14T11:59:00;13.20;99.60
2260;DHT22;333;48.800;9.530;2024-02-14T12:01:30;13.20;99.60
2260;DHT22;333;48.800;9.530;2024-02-14T12:04:00;13.20;99.60
2260;DHT22;333;48.800;9.530;2024-02-14T12:06:28;13.20;99.60
2260;DHT22;333;48.800;9.530;2024-02-14T12:08:57;13.20;99.60
2260;DHT22;333;48.800;9.530;2024-02-14T12:11:27;13.20;99.60
2260;DHT22;333;48.800;9.530;2024-02-14T12:13:54;13.30;99.60
2260;DHT22;333;48.800;9.530;2024-02-14T12:16:22;13.30;99.60
2260;DHT22;333;48.800;9.530;2024-02-14T12:18:49;13.40;99.60
2260;DHT22;333;48.800;9.530;2024-02-14T12:21:33;13.40;99.60
2260;DHT22;333;48.800;9.530;2024-02-14T12:24:00;13.60;99.60
2260;DHT22;333;48.800;9.530;2024-02-14T12:26:27;13.50;99.60
2260;DHT22;333;48.800;9.530;2024-02-14T12:28:54;13.40;99.60
2260;DHT22;333;48.800;9.530;2024-02-14T12:31:22;13.40;99.60
2260;DHT22;333;48.800;9.530;2024-02-14T12:33:50;13.30;99.60
2260;DHT22;333;48.800;9.530;2024-02-14T12:36:18;13.30;99.60
2260;DHT22;333;48.800;9.530;2024-02-14T12:38:46;13.50;99.60
2260;DHT22;333;48.800;9.530;2024-02-14T12:41:14;13.50;99.60
2260;DHT22;333;48.800;9.530;2024-02-14T12:43:41;13.50;99.60
2260;DHT22;333;48.800;9.530;2024-02-14T12:46:08;13.40;99.60
2260;DHT22;333;48.800;9.530;2024-02-14T12:48:35;13.50;99.60
2260;DHT22;333;48.800;9.530;2024-02-14T12:51:02;13.50;99.60
2260;DHT22;333;48.800;9.530;2024-02-14T12:53:29;13.40;99.60
2260;DHT22;333;48.800;9.530;2024-02-14T12:55:57;13.40;99.60
2260;DHT22;333;48.800;9.530;2024-02-14T12:58:25;13.60;99.60
2260;DHT22;333;48.800;9.530;2024-02-14T13:00:52;13.80;99.60
2260;DHT22;333;48.800;9.530;2024-02-14T13:03:19;13.90;99.60
2260;DHT22;333;48.800;9.530;2024-02-14T13:05:46;14.10;99.60
2260;DHT22;333;48.800;9.530;2024-02-14T13:08:14;14.20;99.60
2260;DHT22;333;48.800;9.530;2024-02-14T13:10:43;14.50;99.60
2260;DHT22;333;48.800;9.530;2024-02-14T13:13:11;14.70;99.60
2260;DHT22;333;48.800;9.530;2024-02-14T13:15:40;14.90;99.60
2260;DHT22;333;48.800;9.530;2024-02-14T13:18:08;14.90;99.60
2260;DHT22;333;48.800;9.530;2024-02-14T13:20:35;14.90;99.60
2260;DHT22;333;48.800;9.530;2024-02-14T13:23:04;14.90;99.60
2260;DHT22;333;48.800;9.530;2024-02-14T13:25:35;15.10;99.60
2260;DHT22;333;48.800;9.530;2024-02-14T13:28:03;15.20;99.60
2260;DHT22;333;48.800;9.530;2024-02-14T13:30:31;15.40;99.60
2260;DHT22;333;48.800;9.530;2024-02-14T13:32:58;15.60;99.60
2260;DHT22;333;48.800;9.530;2024-02-14T13:35:25;15.40;99.60
2260;DHT22;333;48.800;9.530;2024-02-14T13:37:53;15.20;99.60
2260;DHT22;333;48.800;9.530;2024-02-14T13:40:20;15.10;99.60
2260;DHT22;333;48.800;9.530;2024-02-14T13:42:47;15.00;99.60
2260;DHT22;333;48.800;9.530;2024-02-14T13:45:14;14.80;99.60
2260;DHT22;333;48.800;9.530;2024-02-14T13:47:43;14.90;99.60
2260;DHT22;333;48.800;9.530;2024-02-14T13:50:10;15.10;99.60
2260;DHT22;333;48.800;9.530;2024-02-14T13:52:38;15.20;99.60
2260;DHT22;333;48.800;9.530;2024-02-14T13:55:05;15.30;99.60
2260;DHT22;333;48.800;9.530;2024-02-14T13:57:35;15.30;99.60
2260;DHT22;333;48.800;9.530;2024-02-14T14:00:04;15.20;99.60
2260;DHT22;333;48.800;9.530;2024-02-14T14:02:31;15.40;99.60
2260;DHT22;333;48.800;9.530;2024-02-14T14:04:59;15.40;99.60
2260;DHT22;333;48.800;9.530;2024-02-14T14:07:26;15.40;99.60
2260;DHT22;333;48.800;9.530;2024-02-14T14:09:53;15.30;99.60
2260;DHT22;333;48.800;9.530;2024-02-14T14:12:20;15.20;99.60
2260;DHT22;333;48.800;9.530;2024-02-14T14:14:47;15.20;99.60
2260;DHT22;333;48.800;9.530;2024-02-14T14:17:14;15.20;99.60
2260;DHT22;333;48.800;9.530;2024-02-14T14:19:41;15.20;99.60
2260;DHT22;333;48.800;9.530;2024-02-14T14:22:10;15.10;99.60
2260;DHT22;333;48.800;9.530;2024-02-14T14:24:37;15.10;99.60
2260;DHT22;333;48.800;9.530;2024-02-14T14:27:04;15.10;99.60
2260;DHT22;333;48.800;9.530;2024-02-14T14:29:34;15.10;99.60
2260;DHT22;333;48.800;9.530;2024-02-14T14:32:02;15.10;99.60
2260;DHT22;333;48.800;9.530;2024-02-14T14:34:29;15.10;99.60
2260;DHT22;333;48.800;9.530;2024-02-14T14:36:57;15.10;99.60
2260;DHT22;333;48.800;9.530;2024-02-14T14:39:26;15.20;99.60
2260;DHT22;333;48.800;9.530;2024-02-14T14:41:53;15.10;99.60
2260;DHT22;333;48.800;9.530;2024-02-14T14:44:23;15.10;99.60
2260;DHT22;333;48.800;9.530;2024-02-14T14:46:50;15.00;99.60
2260;DHT22;333;48.800;9.530;2024-02-14T14:49:18;14.90;99.60
2260;DHT22;333;48.800;9.530;2024-02-14T14:51:45;14.90;99.60
2260;DHT22;333;48.800;9.530;2024-02-14T14:54:12;14.70;99.60
2260;DHT22;333;48.800;9.530;2024-02-14T14:56:41;14.70;99.60
2260;DHT22;333;48.800;9.530;2024-02-14T14:59:08;14.70;99.60
2260;DHT22;333;48.800;9.530;2024-02-14T15:01:35;14.60;99.60
2260;DHT22;333;48.800;9.530;2024-02-14T15:04:04;14.60;99.60
2260;DHT22;333;48.800;9.530;2024-02-14T15:06:32;14.60;99.60
2260;DHT22;333;48.800;9.530;2024-02-14T15:08:59;14.60;99.60
2260;DHT22;333;48.800;9.530;2024-02-14T15:11:26;14.60;99.60
2260;DHT22;333;48.800;9.530;2024-02-14T15:13:55;14.50;99.60
2260;DHT22;333;48.800;9.530;2024-02-14T15:16:22;14.50;99.60
2260;DHT22;333;48.800;9.530;2024-02-14T15:18:49;14.50;99.60
2260;DHT22;333;48.800;9.530;2024-02-14T15:21:16;14.50;99.60
2260;DHT22;333;48.800;9.530;2024-02-14T15:23:43;14.50;99.60
2260;DHT22;333;48.800;9.530;2024-02-14T15:26:10;14.40;99.60
2260;DHT22;333;48.800;9.530;2024-02-14T15:28:38;14.40;99.60
2260;DHT22;333;48.800;9.530;2024-02-14T15:31:08;14.40;99.60
2260;DHT22;333;48.800;9.530;2024-02-14T15:33:53;14.40;99.60
2260;DHT22;333;48.800;9.530;2024-02-14T15:36:21;14.30;99.60
2260;DHT22;333;48.800;9.530;2024-02-14T15:38:48;14.20;99.60
2260;DHT22;333;48.800;9.530;2024-02-14T15:41:15;14.30;99.60
2260;DHT22;333;48.800;9.530;2024-02-14T15:43:43;14.20;99.60
2260;DHT22;333;48.800;9.530;2024-02-14T15:46:12;14.30;99.60
2260;DHT22;333;48.800;9.530;2024-02-14T15:48:39;14.30;99.60
2260;DHT22;333;48.800;9.530;2024-02-14T15:51:06;14.20;99.60
2260;DHT22;333;48.800;9.530;2024-02-14T15:53:34;14.30;99.60
2260;DHT22;333;48.800;9.530;2024-02-14T15:56:04;14.30;99.60
2260;DHT22;333;48.800;9.530;2024-02-14T15:58:31;14.30;99.60
2260;DHT22;333;48.800;9.530;2024-02-14T16:00:59;14.20;99.60
2260;DHT22;333;48.800;9.530;2024-02-14T16:03:27;14.20;99.60
2260;DHT22;333;48.800;9.530;2024-02-14T16:05:54;14.10;99.60
2260;DHT22;333;48.800;9.530;2024-02-14T16:08:21;14.20;99.60
2260;DHT22;333;48.800;9.530;2024-02-14T16:10:49;14.20;99.60
2260;DHT22;333;48.800;9.530;2024-02-14T16:13:17;14.10;99.60
2260;DHT22;333;48.800;9.530;2024-02-14T16:15:45;14.00;99.60
2260;DHT22;333;48.800;9.530;2024-02-14T16:18:12;13.90;99.60
2260;DHT22;333;48.800;9.530;2024-02-14T16:20:41;13.90;99.60
2260;DHT22;333;48.800;9.530;2024-02-14T16:23:08;13.80;99.60
2260;DHT22;333;48.800;9.530;2024-02-14T16:25:35;13.90;99.60
2260;DHT22;333;48.800;9.530;2024-02-14T16:28:04;13.90;99.60
2260;DHT22;333;48.800;9.530;2024-02-14T16:30:32;13.80;99.60